Twin Lakes, Idaho
Current Conditions -  °F | °C
As of 11:55 AM on Sunday 21 Dec 2014 (Local Time) from KCOE Reporting Station
Clear Clear  
Wind Chill: 40°   Ceiling: Unl
Heat Index: 46°   Visibility: 10mi
Dew Point: 37°   Wind: 14mph
Humidity: 71%   Direction: 250°WSW
Pressure: 29.75"   Gusts: 22mph
Location:  47.8426°N, 116.907°W
Report Text: KCOE 211955Z AUTO 25012G19KT 10SM CLR 08/03 A2975 RMK AO1
Loading
Personal Weather Stations






























Interactive Weather Map New forecast layout! Learn more

10-Day Weather Forecast

Advertisements
Track Severe Weather on mobile